Time;durP1;ratioP1;P1;durP2;ratioP2;P2;SDS_P1;SDS_P2;PMS_P1;PMS_P2;Temp;Humidity;BMP_temperature;BMP_pressure;BME280_temperature;BME280_humidity;BME280_pressure;Samples;Min_cycle;Max_cycle;Signal;HPM_P1;HPM_P2
2022/07/13 00:02:07;;;;;;;1.80;1.63;;;;;;;22.70;54.56;102133.03;5063441;28;20029;-60
2022/07/13 00:04:32;;;;;;;2.35;2.03;;;;;;;22.71;54.51;102121.16;5047011;28;20025;-60
2022/07/13 00:06:58;;;;;;;2.33;1.92;;;;;;;22.71;54.81;102112.19;5064291;28;20036;-60
2022/07/13 00:09:23;;;;;;;2.63;1.83;;;;;;;22.71;54.88;102110.31;5063022;28;20032;-60
2022/07/13 00:11:48;;;;;;;2.42;2.20;;;;;;;22.52;54.94;102066.41;5067544;28;20080;-60
2022/07/13 00:14:13;;;;;;;2.67;2.40;;;;;;;22.71;54.84;102085.06;5067010;28;20032;-59
2022/07/13 00:16:39;;;;;;;3.30;2.30;;;;;;;22.51;55.04;102048.41;5066687;28;20394;-59
2022/07/13 00:19:04;;;;;;;2.78;2.00;;;;;;;22.71;54.95;102079.66;5066995;28;20116;-59
2022/07/13 00:21:29;;;;;;;2.40;1.90;;;;;;;22.71;55.17;102079.66;5066683;28;20024;-60
2022/07/13 00:23:55;;;;;;;2.65;1.88;;;;;;;22.70;55.32;102075.25;5066318;28;20025;-60
2022/07/13 00:26:20;;;;;;;2.58;2.10;;;;;;;22.51;55.00;102041.13;5066297;28;20144;-61
2022/07/13 00:28:45;;;;;;;2.60;2.30;;;;;;;22.71;54.98;102075.06;5067617;28;20056;-61
2022/07/13 00:31:10;;;;;;;2.65;2.13;;;;;;;22.52;55.01;102042.00;5067885;28;20036;-60
2022/07/13 00:33:36;;;;;;;2.20;2.00;;;;;;;22.52;55.34;102042.84;5066629;28;20048;-59
2022/07/13 00:36:01;;;;;;;2.92;2.30;;;;;;;22.70;55.32;102062.53;5066079;28;20488;-60
2022/07/13 00:38:26;;;;;;;2.55;2.05;;;;;;;22.70;55.09;102045.44;5066202;28;20027;-59
2022/07/13 00:40:52;;;;;;;4.40;2.60;;;;;;;22.68;55.02;102029.34;5067165;28;20021;-59
2022/07/13 00:43:18;;;;;;;2.55;2.15;;;;;;;22.70;55.02;102027.28;5066130;28;20036;-59
2022/07/13 00:45:43;;;;;;;2.38;2.13;;;;;;;22.69;55.04;102036.44;5066143;28;20120;-59
2022/07/13 00:48:08;;;;;;;1.98;1.85;;;;;;;22.71;55.04;102042.53;5066190;28;20033;-59
2022/07/13 00:50:34;;;;;;;3.65;2.45;;;;;;;22.69;55.31;102039.16;5066298;28;20051;-59
2022/07/13 00:52:59;;;;;;;2.38;2.15;;;;;;;22.49;54.98;102004.38;5067508;28;20462;-59
2022/07/13 00:55:25;;;;;;;2.50;2.30;;;;;;;22.70;55.18;102049.00;5066698;28;20086;-59
2022/07/13 00:57:50;;;;;;;2.50;2.30;;;;;;;22.69;55.03;102043.75;5067275;28;20025;-59
2022/07/13 01:00:16;;;;;;;2.53;2.33;;;;;;;22.70;55.13;102027.28;5067325;28;20021;-60
2022/07/13 01:02:44;;;;;;;2.85;2.50;;;;;;;22.46;55.28;101983.88;5070361;28;20031;-60
2022/07/13 01:05:10;;;;;;;3.08;2.30;;;;;;;22.68;55.03;102032.06;5081654;28;20017;-59
2022/07/13 01:07:36;;;;;;;2.53;2.30;;;;;;;22.51;54.93;101992.34;5069181;28;20093;-59
2022/07/13 01:10:05;;;;;;;2.28;2.08;;;;;;;22.44;55.08;101975.06;5066522;28;20082;-60
2022/07/13 01:12:31;;;;;;;2.40;2.20;;;;;;;22.70;55.33;102008.31;5085535;28;20078;-59
2022/07/13 01:14:57;;;;;;;2.47;2.28;;;;;;;22.43;54.98;101968.81;5086712;28;20050;-60
2022/07/13 01:17:23;;;;;;;2.65;2.45;;;;;;;22.68;55.07;102009.50;5085167;28;20093;-60
2022/07/13 01:19:49;;;;;;;3.47;2.30;;;;;;;22.70;54.95;102015.59;5074059;28;20054;-59
2022/07/13 01:22:17;;;;;;;2.95;2.75;;;;;;;22.50;55.30;101973.56;5065986;28;20025;-60
2022/07/13 01:24:43;;;;;;;2.63;2.30;;;;;;;22.70;55.10;102007.47;5066136;28;20024;-60
2022/07/13 01:27:08;;;;;;;2.80;2.42;;;;;;;22.46;55.32;101975.75;5066594;28;20038;-60
2022/07/13 01:29:34;;;;;;;3.05;2.78;;;;;;;22.70;55.22;102021.03;5065656;28;20029;-59
2022/07/13 01:32:00;;;;;;;3.05;2.75;;;;;;;22.70;55.34;102023.75;5066585;28;20076;-59
2022/07/13 01:34:25;;;;;;;2.97;2.67;;;;;;;22.70;55.43;102024.59;5066423;28;20032;-60
2022/07/13 01:36:50;;;;;;;3.58;3.10;;;;;;;22.50;55.45;101987.94;5077234;28;20381;-60
2022/07/13 01:39:16;;;;;;;2.92;2.72;;;;;;;22.69;55.60;102019.34;5068050;28;20064;-60
2022/07/13 01:41:41;;;;;;;3.08;2.78;;;;;;;22.67;55.52;102014.06;5085001;28;20032;-60
2022/07/13 01:44:06;;;;;;;3.00;2.70;;;;;;;22.69;55.54;102017.47;5086191;28;20048;-59
2022/07/13 01:46:32;;;;;;;2.70;2.50;;;;;;;22.70;55.48;102021.03;5086281;28;20017;-59
2022/07/13 01:48:57;;;;;;;2.63;2.42;;;;;;;22.70;55.45;102015.59;5086292;28;20043;-59
2022/07/13 01:51:23;;;;;;;3.25;2.60;;;;;;;22.69;55.47;101989.53;5086218;28;20084;-59
2022/07/13 01:53:48;;;;;;;2.80;2.55;;;;;;;22.70;55.42;101969.53;5086337;28;20165;-59
2022/07/13 01:56:13;;;;;;;3.45;2.38;;;;;;;22.60;55.09;101961.56;5085657;28;20025;-60
2022/07/13 01:58:39;;;;;;;4.10;3.13;;;;;;;22.69;55.32;101987.66;5084820;28;20080;-60
2022/07/13 02:01:05;;;;;;;3.33;3.03;;;;;;;22.50;55.32;101946.44;5085915;28;20431;-60
2022/07/13 02:03:31;;;;;;;3.15;2.85;;;;;;;22.69;55.34;101976.81;5086184;28;20075;-60
2022/07/13 02:05:58;;;;;;;3.42;2.80;;;;;;;22.51;55.46;101937.31;5085953;28;20027;-60
2022/07/13 02:08:24;;;;;;;3.50;2.80;;;;;;;22.46;55.31;101933.22;5084692;28;20401;-60
2022/07/13 02:10:50;;;;;;;3.45;2.47;;;;;;;22.68;55.48;101963.41;5075183;28;20036;-60
2022/07/13 02:13:15;;;;;;;2.65;2.45;;;;;;;22.65;55.45;101958.34;5065493;28;20017;-60
2022/07/13 02:15:42;;;;;;;2.67;2.45;;;;;;;22.69;55.38;101962.41;5065607;28;20033;-60
2022/07/13 02:18:07;;;;;;;5.60;2.78;;;;;;;22.68;55.17;101964.28;5065510;28;20029;-60
2022/07/13 02:20:33;;;;;;;3.08;2.78;;;;;;;22.68;55.02;101967.00;5065585;28;20141;-60
2022/07/13 02:22:59;;;;;;;3.35;3.05;;;;;;;22.67;55.39;101956.28;5047559;28;20021;-60
2022/07/13 02:25:24;;;;;;;2.92;2.50;;;;;;;22.67;55.28;101957.13;5047268;28;20024;-60
2022/07/13 02:27:49;;;;;;;2.88;2.58;;;;;;;22.68;55.26;101956.16;5063921;28;20083;-60
2022/07/13 02:30:15;;;;;;;3.60;2.78;;;;;;;22.48;55.29;101922.25;5065697;28;20021;-60
2022/07/13 02:32:44;;;;;;;3.20;2.90;;;;;;;22.68;55.14;101949.84;5065301;28;20040;-60
2022/07/13 02:35:10;;;;;;;2.95;2.65;;;;;;;22.68;55.16;101952.56;5063413;28;20474;-60
2022/07/13 02:37:36;;;;;;;3.53;2.85;;;;;;;22.67;55.13;101940.88;5063940;28;20050;-60
2022/07/13 02:40:03;;;;;;;2.45;2.25;;;;;;;22.49;54.90;101910.38;5063919;28;20082;-60
2022/07/13 02:42:28;;;;;;;3.05;2.55;;;;;;;22.67;54.99;101932.75;5063997;28;20028;-60
2022/07/13 02:44:54;;;;;;;2.75;2.50;;;;;;;22.49;55.01;101907.66;5064864;28;20037;-60
2022/07/13 02:47:19;;;;;;;2.97;2.72;;;;;;;22.45;55.23;101895.47;5065074;28;20029;-60
2022/07/13 02:49:44;;;;;;;3.70;2.95;;;;;;;22.67;55.22;101923.75;5063793;28;20027;-60
2022/07/13 02:52:10;;;;;;;2.90;2.70;;;;;;;22.44;54.91;101886.50;5063732;28;20017;-60
2022/07/13 02:54:35;;;;;;;3.65;2.78;;;;;;;22.44;55.18;101889.19;5064639;28;20016;-60
2022/07/13 02:57:00;;;;;;;2.90;2.58;;;;;;;22.66;55.03;101924.78;5063508;28;20052;-60
2022/07/13 02:59:26;;;;;;;3.28;2.50;;;;;;;22.67;55.02;101931.91;5065033;28;20021;-60
2022/07/13 03:01:51;;;;;;;2.72;2.53;;;;;;;22.48;55.17;101897.00;5064837;28;20029;-60
2022/07/13 03:04:16;;;;;;;3.00;2.70;;;;;;;22.65;54.98;101928.53;5063998;28;20040;-60
2022/07/13 03:06:42;;;;;;;2.67;2.47;;;;;;;22.44;54.87;101882.94;5063532;28;20084;-60
2022/07/13 03:09:08;;;;;;;3.10;2.42;;;;;;;22.65;54.86;101918.53;5063277;28;20033;-60
2022/07/13 03:11:33;;;;;;;2.90;2.60;;;;;;;22.67;54.90;101923.75;5079618;28;20048;-60
2022/07/13 03:13:58;;;;;;;2.50;2.30;;;;;;;22.66;54.79;101916.66;5084892;28;20089;-60
2022/07/13 03:16:24;;;;;;;2.90;2.60;;;;;;;22.66;54.78;101913.94;5066881;28;20021;-60
2022/07/13 03:18:49;;;;;;;2.85;2.65;;;;;;;22.65;54.63;101907.69;5084920;28;20020;-60
2022/07/13 03:21:14;;;;;;;2.60;2.40;;;;;;;22.66;54.75;101903.09;5085212;28;20455;-60
2022/07/13 03:23:39;;;;;;;3.00;2.70;;;;;;;22.62;54.67;101899.03;5085119;28;20024;-60
2022/07/13 03:26:05;;;;;;;3.50;2.63;;;;;;;22.62;54.68;101902.59;5083528;28;20021;-59
2022/07/13 03:28:31;;;;;;;2.58;2.38;;;;;;;22.64;54.72;101906.00;5084812;28;20030;-59
2022/07/13 03:30:56;;;;;;;2.67;2.47;;;;;;;22.62;54.64;101896.31;5085089;28;20020;-59
2022/07/13 03:33:21;;;;;;;2.53;2.33;;;;;;;22.46;54.53;101870.91;5084816;28;20024;-60
2022/07/13 03:35:46;;;;;;;2.65;2.45;;;;;;;22.42;54.56;101860.56;5084411;28;20050;-59
2022/07/13 03:38:12;;;;;;;2.97;2.45;;;;;;;22.65;54.34;101904.13;5084804;28;20031;-60
2022/07/13 03:40:37;;;;;;;2.63;2.42;;;;;;;22.45;54.31;101869.22;5084188;28;20037;-59
2022/07/13 03:43:02;;;;;;;3.50;2.45;;;;;;;22.43;54.55;101865.00;5084698;28;20400;-59
2022/07/13 03:45:27;;;;;;;2.80;2.30;;;;;;;22.64;54.46;101900.56;5085755;28;20055;-60
2022/07/13 03:47:53;;;;;;;3.53;2.70;;;;;;;22.60;54.54;101892.91;5087177;28;20025;-60
2022/07/13 03:50:18;;;;;;;2.60;2.40;;;;;;;22.64;54.35;101897.84;5088715;28;20110;-60
2022/07/13 03:52:44;;;;;;;3.08;2.80;;;;;;;22.39;54.43;101853.63;5088400;28;20156;-60
2022/07/13 03:55:09;;;;;;;2.95;2.30;;;;;;;22.64;54.23;101899.69;5086633;28;20064;-60
2022/07/13 03:57:34;;;;;;;2.63;2.30;;;;;;;22.44;54.32;101862.09;5088336;28;20030;-60
2022/07/13 04:00:00;;;;;;;2.60;2.40;;;;;;;22.64;54.24;101896.97;5087415;28;20032;-60
2022/07/13 04:02:25;;;;;;;2.30;2.10;;;;;;;22.64;54.18;101897.84;5088047;28;20021;-60
2022/07/13 04:04:50;;;;;;;2.83;2.53;;;;;;;22.44;54.26;101853.97;5088551;28;20027;-60
2022/07/13 04:07:16;;;;;;;3.38;2.30;;;;;;;22.56;54.24;101872.63;5086769;28;20070;-60
2022/07/13 04:09:41;;;;;;;2.00;1.90;;;;;;;22.45;54.09;101850.25;5087124;28;20026;-60
2022/07/13 04:12:06;;;;;;;2.40;2.20;;;;;;;22.42;54.26;101847.84;5067995;28;20037;-60
2022/07/13 04:14:32;;;;;;;2.47;2.25;;;;;;;22.64;54.11;101886.16;5066673;28;20028;-60
2022/07/13 04:16:57;;;;;;;2.78;2.40;;;;;;;22.62;54.17;101877.34;5068025;28;20073;-59
2022/07/13 04:19:22;;;;;;;3.58;2.60;;;;;;;22.62;53.95;101878.19;5066703;28;20116;-60
2022/07/13 04:21:48;;;;;;;3.33;2.35;;;;;;;22.43;54.13;101846.03;5067735;28;20025;-59
2022/07/13 04:24:13;;;;;;;2.78;2.13;;;;;;;22.63;54.04;101876.31;5067526;28;20081;-59
2022/07/13 04:26:38;;;;;;;3.08;2.17;;;;;;;22.59;54.09;101864.97;5066665;28;20458;-59
2022/07/13 04:29:03;;;;;;;4.30;2.20;;;;;;;22.46;54.05;101845.66;5066578;28;20040;-59
2022/07/13 04:31:29;;;;;;;2.35;2.15;;;;;;;22.38;54.03;101823.97;5066484;28;20021;-59
2022/07/13 04:33:54;;;;;;;2.58;2.33;;;;;;;22.63;54.11;101868.19;5066553;28;20087;-59
2022/07/13 04:36:19;;;;;;;2.97;2.03;;;;;;;22.45;53.80;101827.72;5066092;28;20462;-60
2022/07/13 04:38:44;;;;;;;2.45;2.08;;;;;;;22.62;54.54;101858.38;5066582;28;20028;-60
2022/07/13 04:41:11;;;;;;;2.58;2.33;;;;;;;22.62;53.91;101853.78;5067394;28;20025;-60
2022/07/13 04:43:36;;;;;;;2.13;1.92;;;;;;;22.44;54.06;101821.47;5066003;28;20044;-60
2022/07/13 04:46:02;;;;;;;2.38;2.10;;;;;;;22.61;53.90;101846.69;5067107;28;20041;-60
2022/07/13 04:48:28;;;;;;;2.70;2.05;;;;;;;22.63;53.72;101846.50;5049150;28;20053;-60
2022/07/13 04:50:53;;;;;;;1.88;1.77;;;;;;;22.45;53.80;101815.00;5066197;28;20021;-60
2022/07/13 04:53:18;;;;;;;2.05;1.85;;;;;;;22.64;53.72;101840.06;5066014;28;20464;-60
2022/07/13 04:55:43;;;;;;;2.20;2.00;;;;;;;22.64;53.88;101840.06;5066912;28;20028;-59
2022/07/13 04:58:09;;;;;;;2.10;1.90;;;;;;;22.62;53.88;101839.41;5066156;28;20119;-59
2022/07/13 05:00:35;;;;;;;2.80;2.10;;;;;;;22.64;53.91;101838.22;5066234;28;20025;-60
2022/07/13 05:03:00;;;;;;;2.15;1.95;;;;;;;22.63;54.00;101835.66;5065954;28;20107;-60
2022/07/13 05:05:28;;;;;;;2.88;1.70;;;;;;;22.64;53.55;101835.50;5065073;28;20017;-59
2022/07/13 05:07:54;;;;;;;2.22;2.03;;;;;;;22.64;53.65;101840.06;5046471;28;20463;-59
2022/07/13 05:10:19;;;;;;;1.60;1.50;;;;;;;22.58;53.52;101825.34;5057975;28;20024;-60
2022/07/13 05:12:44;;;;;;;2.20;1.90;;;;;;;22.64;53.84;101832.81;5086503;28;20444;-60
2022/07/13 05:15:10;;;;;;;1.83;1.73;;;;;;;22.64;53.74;101834.63;5086590;28;20078;-59
2022/07/13 05:17:35;;;;;;;2.13;1.85;;;;;;;22.64;53.21;101831.94;5085075;28;20020;-60
2022/07/13 05:20:01;;;;;;;1.73;1.60;;;;;;;22.64;53.86;101835.50;5085646;28;20051;-59
2022/07/13 05:22:26;;;;;;;1.80;1.60;;;;;;;22.66;53.38;101848.88;5085171;28;20033;-60
2022/07/13 05:24:52;;;;;;;2.10;1.80;;;;;;;22.65;53.36;101841.78;5086228;28;20020;-60
2022/07/13 05:27:17;;;;;;;2.20;2.00;;;;;;;22.65;53.54;101842.63;5085068;28;20024;-60
2022/07/13 05:29:42;;;;;;;1.85;1.60;;;;;;;22.65;53.60;101842.63;5086656;28;20021;-60
2022/07/13 05:32:08;;;;;;;1.80;1.65;;;;;;;22.65;53.48;101844.50;5086288;28;20048;-60
2022/07/13 05:34:33;;;;;;;1.95;1.67;;;;;;;22.66;53.49;101854.31;5085136;28;20069;-59
2022/07/13 05:36:58;;;;;;;2.42;2.10;;;;;;;22.59;53.64;101832.44;5084592;28;20039;-59
2022/07/13 05:39:23;;;;;;;3.08;1.95;;;;;;;22.65;53.66;101849.91;5084581;28;20059;-59
2022/07/13 05:41:49;;;;;;;2.00;1.70;;;;;;;22.65;53.65;101853.47;5086124;28;20389;-59
2022/07/13 05:44:14;;;;;;;2.20;1.92;;;;;;;22.42;53.51;101811.78;5084762;28;20040;-59
2022/07/13 05:46:39;;;;;;;2.92;1.80;;;;;;;22.65;53.66;101855.34;5084876;28;20084;-60
2022/07/13 05:49:04;;;;;;;3.95;1.90;;;;;;;22.48;53.20;101821.97;5086223;28;20020;-60
2022/07/13 05:51:30;;;;;;;2.25;1.83;;;;;;;22.64;53.63;101851.78;5084758;28;20025;-59
2022/07/13 05:53:55;;;;;;;3.47;2.10;;;;;;;22.66;53.49;101854.31;5085041;28;20024;-59
2022/07/13 05:56:20;;;;;;;2.13;1.73;;;;;;;22.43;53.55;101808.09;5085471;28;20025;-59
2022/07/13 05:58:45;;;;;;;1.98;1.63;;;;;;;22.59;53.42;101835.16;5084452;28;20066;-59
2022/07/13 06:01:11;;;;;;;2.30;1.80;;;;;;;22.47;53.59;101817.53;5084911;28;20024;-59
2022/07/13 06:03:36;;;;;;;2.33;1.63;;;;;;;22.68;53.65;101855.84;5086011;28;20033;-59
2022/07/13 06:06:01;;;;;;;1.55;1.45;;;;;;;22.67;53.40;101848.69;5085897;28;20107;-59
2022/07/13 06:08:26;;;;;;;2.58;1.75;;;;;;;22.66;53.65;101855.16;5084225;28;20024;-59
2022/07/13 06:10:52;;;;;;;1.92;1.73;;;;;;;22.67;53.57;101853.28;5073658;28;20029;-59
2022/07/13 06:13:18;;;;;;;1.77;1.67;;;;;;;22.68;53.47;101850.41;5065525;28;20033;-59
2022/07/13 06:15:43;;;;;;;2.08;1.88;;;;;;;22.68;53.48;101850.41;5065284;28;20025;-59
2022/07/13 06:18:08;;;;;;;2.75;1.77;;;;;;;22.50;53.83;101824.50;5065277;28;20037;-59
2022/07/13 06:20:33;;;;;;;1.90;1.70;;;;;;;22.69;53.68;101852.09;5065554;28;20044;-59
2022/07/13 06:23:11;;;;;;;2.20;2.00;;;;;;;22.70;53.51;101844.81;5065323;28;20028;-59
2022/07/13 06:25:39;;;;;;;2.28;2.05;;;;;;;22.68;53.67;101842.28;5065174;28;20025;-59
2022/07/13 06:28:05;;;;;;;1.80;1.70;;;;;;;22.70;53.59;101856.50;5065275;28;20067;-59
2022/07/13 06:30:31;;;;;;;2.13;1.70;;;;;;;22.69;53.59;101852.09;5065362;28;20441;-59
2022/07/13 06:32:56;;;;;;;1.60;1.50;;;;;;;22.71;53.59;101854.63;5065241;28;20040;-59
2022/07/13 06:35:22;;;;;;;1.80;1.42;;;;;;;22.70;53.58;101850.25;5065171;28;20074;-59
2022/07/13 06:37:48;;;;;;;1.75;1.65;;;;;;;22.72;53.70;101853.59;5066229;28;20032;-60
2022/07/13 06:40:13;;;;;;;1.65;1.50;;;;;;;22.54;53.77;101813.13;5073127;28;20020;-60
2022/07/13 06:42:39;;;;;;;2.15;1.77;;;;;;;22.54;53.56;101815.84;5073674;28;20096;-60
2022/07/13 06:45:05;;;;;;;1.95;1.40;;;;;;;22.74;53.47;101839.91;5085044;28;20036;-60
2022/07/13 06:47:30;;;;;;;2.38;1.60;;;;;;;22.74;53.87;101846.16;5083954;28;20123;-60
2022/07/13 06:49:55;;;;;;;2.00;1.60;;;;;;;22.75;53.42;101842.44;5085386;28;20055;-60
2022/07/13 06:52:20;;;;;;;3.20;1.98;;;;;;;22.71;53.62;101844.63;5085393;28;20032;-59
2022/07/13 06:54:46;;;;;;;2.10;1.90;;;;;;;22.76;53.40;101838.69;5081683;28;20081;-60
2022/07/13 06:57:11;;;;;;;2.95;1.50;;;;;;;22.77;53.54;101842.25;5064868;28;20036;-59
2022/07/13 06:59:36;;;;;;;1.83;1.48;;;;;;;22.57;53.63;101811.97;5063608;28;20482;-59
2022/07/13 07:02:02;;;;;;;1.77;1.48;;;;;;;22.58;53.34;101798.22;5047003;28;20112;-59
2022/07/13 07:04:29;;;;;;;2.10;1.73;;;;;;;22.79;53.44;101838.34;5064725;28;20031;-59
2022/07/13 07:06:54;;;;;;;2.35;1.55;;;;;;;22.79;53.45;101837.50;5064913;28;20057;-60
2022/07/13 07:09:20;;;;;;;2.88;2.00;;;;;;;22.79;53.37;101834.81;5064535;28;20398;-60
2022/07/13 07:11:46;;;;;;;1.50;1.38;;;;;;;22.77;53.44;101840.41;5066960;28;20060;-60
2022/07/13 07:14:11;;;;;;;2.70;1.90;;;;;;;22.80;53.22;101844.63;5084999;28;20032;-59
2022/07/13 07:16:37;;;;;;;2.47;1.88;;;;;;;22.74;53.22;101834.47;5084925;28;20025;-59
2022/07/13 07:19:03;;;;;;;2.80;1.77;;;;;;;22.77;53.45;101839.53;5084866;28;20096;-59
2022/07/13 07:21:28;;;;;;;1.85;1.67;;;;;;;22.79;53.26;101846.50;5086833;28;20036;-59
2022/07/13 07:23:53;;;;;;;2.15;1.65;;;;;;;22.76;53.27;101843.28;5087828;28;20024;-59
2022/07/13 07:26:19;;;;;;;2.40;2.20;;;;;;;22.80;53.20;101848.19;5088883;28;20028;-59
2022/07/13 07:28:44;;;;;;;2.53;1.80;;;;;;;22.81;53.44;101843.59;5087496;28;20031;-59
2022/07/13 07:31:10;;;;;;;1.92;1.73;;;;;;;22.62;53.30;101812.28;5088966;28;20499;-59
2022/07/13 07:33:35;;;;;;;2.15;1.85;;;;;;;22.82;53.51;101853.44;5088997;28;20028;-59
2022/07/13 07:36:00;;;;;;;2.55;1.90;;;;;;;22.60;53.31;101815.19;5089083;28;20050;-59
2022/07/13 07:38:25;;;;;;;2.00;1.80;;;;;;;22.82;53.33;101839.91;5087339;28;20031;-59
2022/07/13 07:40:51;;;;;;;2.05;1.80;;;;;;;22.83;53.61;101847.00;5088437;28;20036;-59
2022/07/13 07:43:16;;;;;;;1.88;1.77;;;;;;;22.82;53.43;101838.03;5088739;28;20037;-59
2022/07/13 07:45:41;;;;;;;2.95;1.83;;;;;;;22.83;53.55;101834.28;5086141;28;20077;-59
2022/07/13 07:48:06;;;;;;;1.67;1.50;;;;;;;22.83;53.46;101839.72;5068417;28;20032;-59
2022/07/13 07:50:32;;;;;;;1.90;1.63;;;;;;;22.85;53.27;101839.53;5068575;28;20036;-59
2022/07/13 07:52:57;;;;;;;2.33;1.60;;;;;;;22.64;53.35;101802.97;5067404;28;20497;-59
2022/07/13 07:55:23;;;;;;;2.08;1.88;;;;;;;22.67;53.14;101809.91;5066827;28;20029;-59
2022/07/13 07:57:52;;;;;;;3.03;2.08;;;;;;;22.80;53.45;101825.66;5067025;28;20032;-59
2022/07/13 08:00:18;;;;;;;2.42;2.20;;;;;;;22.87;53.53;101830.22;5050737;28;20063;-59
2022/07/13 08:02:44;;;;;;;2.60;2.35;;;;;;;22.68;53.33;101801.63;5068293;28;20033;-59
2022/07/13 08:05:09;;;;;;;3.25;2.10;;;;;;;22.89;53.38;101833.59;5067408;28;20021;-59
2022/07/13 08:07:42;;;;;;;2.35;1.70;;;;;;;22.91;53.29;101836.19;5066844;28;20029;-59
2022/07/13 08:10:08;;;;;;;2.30;2.00;;;;;;;22.92;53.05;101824.31;5066601;28;20436;-59
2022/07/13 08:12:33;;;;;;;2.30;2.10;;;;;;;22.75;53.31;101799.06;5066839;28;20028;-59
2022/07/13 08:14:58;;;;;;;3.40;2.08;;;;;;;22.94;53.12;101838.56;5066595;28;20032;-59
2022/07/13 08:17:24;;;;;;;2.13;1.92;;;;;;;22.79;53.18;101797.69;5066575;28;20033;-58
2022/07/13 08:19:49;;;;;;;2.40;1.90;;;;;;;22.98;53.21;101830.88;5068268;28;20021;-59
2022/07/13 08:22:14;;;;;;;3.33;2.85;;;;;;;22.80;53.13;101799.38;5066811;28;20381;-59
2022/07/13 08:24:39;;;;;;;2.85;2.30;;;;;;;22.98;53.17;101831.75;5067549;28;20084;-59
2022/07/13 08:27:05;;;;;;;2.67;2.30;;;;;;;23.03;53.08;101831.25;5066595;28;20029;-59
2022/07/13 08:29:30;;;;;;;3.28;2.20;;;;;;;23.01;53.23;101822.41;5067656;28;20032;-59
2022/07/13 08:31:55;;;;;;;2.28;2.05;;;;;;;23.04;53.06;101838.34;5064948;28;20089;-59
2022/07/13 08:39:49;;;;;;;2.58;2.17;;;;;;;23.05;53.17;101821.88;5067567;28;20563;-60
2022/07/13 08:42:14;;;;;;;2.30;2.10;;;;;;;23.08;53.09;101820.72;5067601;28;20036;-60
2022/07/13 08:44:40;;;;;;;2.70;2.38;;;;;;;23.08;53.21;101823.41;5066217;28;20466;-60
2022/07/13 08:47:06;;;;;;;2.88;2.15;;;;;;;23.09;53.06;101819.69;5078504;28;20112;-59
2022/07/13 08:49:32;;;;;;;2.20;2.00;;;;;;;23.12;52.91;101822.06;5086148;28;20431;-59
2022/07/13 08:51:58;;;;;;;2.47;1.90;;;;;;;23.12;52.98;101822.06;5069501;28;20020;-60
2022/07/13 08:54:23;;;;;;;2.65;2.17;;;;;;;23.13;53.06;101821.88;5086181;28;20831;-60
2022/07/13 08:56:49;;;;;;;4.22;2.30;;;;;;;22.94;53.02;101796.00;5069158;28;20033;-59
2022/07/13 08:59:14;;;;;;;5.43;2.45;;;;;;;23.15;53.14;101829.81;5086054;28;20039;-60
2022/07/13 09:01:39;;;;;;;3.80;2.40;;;;;;;23.15;53.13;101822.56;5085810;28;20051;-59
2022/07/13 09:04:10;;;;;;;2.63;2.15;;;;;;;23.17;52.90;101822.38;5087393;28;20024;-59
2022/07/13 09:06:38;;;;;;;2.50;2.20;;;;;;;23.18;52.80;101821.34;5087173;28;20021;-59
2022/07/13 09:09:03;;;;;;;2.13;1.83;;;;;;;23.20;52.95;101824.75;5087191;28;20035;-59
2022/07/13 09:11:28;;;;;;;2.10;1.90;;;;;;;23.19;52.62;101818.47;5086602;28;20266;-59
2022/07/13 09:13:56;;;;;;;2.30;2.00;;;;;;;23.22;52.85;101816.41;5086976;28;20024;-59
2022/07/13 09:16:23;;;;;;;2.60;2.17;;;;;;;23.22;52.99;101817.25;5085775;28;20050;-59
2022/07/13 09:18:48;;;;;;;2.28;2.08;;;;;;;23.23;52.96;101813.50;5085683;28;20021;-60
2022/07/13 09:21:14;;;;;;;2.75;2.40;;;;;;;23.07;52.77;101791.91;5086843;28;20476;-60
2022/07/13 09:23:39;;;;;;;2.10;1.80;;;;;;;23.03;52.68;101783.25;5085549;28;20033;-60
2022/07/13 09:26:05;;;;;;;4.07;2.38;;;;;;;23.25;52.93;101811.50;5084973;28;20020;-60
2022/07/13 09:28:42;;;;;;;2.92;2.40;;;;;;;23.27;52.88;101808.59;5085489;28;20266;-60
2022/07/13 09:31:07;;;;;;;2.83;2.50;;;;;;;23.27;52.89;101812.13;5085478;28;20096;-60
2022/07/13 09:33:34;;;;;;;4.35;2.20;;;;;;;23.28;52.93;101813.84;5085213;28;20028;-60
2022/07/13 09:36:18;;;;;;;2.65;2.33;;;;;;;23.30;52.64;101822.66;5085197;28;20025;-60
2022/07/13 09:38:44;;;;;;;2.53;2.30;;;;;;;23.31;52.89;101820.78;5086350;28;20020;-60
2022/07/13 09:41:16;;;;;;;3.20;2.35;;;;;;;23.31;52.92;101812.63;5084893;28;20050;-60
2022/07/13 09:46:59;;;;;;;2.55;2.33;;;;;;;23.33;52.86;101818.75;5075050;28;20079;-60
2022/07/13 09:49:42;;;;;;;2.60;2.40;;;;;;;23.34;52.87;101828.59;5065149;28;20040;-59
2022/07/13 09:52:09;;;;;;;2.72;2.28;;;;;;;23.13;52.92;101789.31;5064853;28;20107;-60
2022/07/13 09:54:36;;;;;;;3.05;2.50;;;;;;;23.36;52.91;101821.09;5065788;28;20029;-60
2022/07/13 09:57:13;;;;;;;2.38;2.17;;;;;;;23.36;52.71;101827.41;5064492;28;20040;-60
2022/07/13 09:59:43;;;;;;;2.90;2.30;;;;;;;23.37;52.89;101820.94;5064895;28;20029;-60
2022/07/13 10:02:08;;;;;;;2.35;2.15;;;;;;;23.39;52.84;101831.59;5065761;28;20047;-60
2022/07/13 10:04:37;;;;;;;2.63;2.25;;;;;;;23.39;52.85;101826.19;5064934;28;20596;-60
2022/07/13 10:07:09;;;;;;;2.83;2.17;;;;;;;23.40;52.82;101836.84;5064397;28;20052;-60
2022/07/13 10:09:38;;;;;;;2.70;2.30;;;;;;;23.41;52.71;101833.13;5064518;28;20053;-60
2022/07/13 10:12:06;;;;;;;3.38;2.60;;;;;;;23.43;52.88;101838.38;5065739;28;20029;-60
2022/07/13 10:14:31;;;;;;;2.40;2.20;;;;;;;23.41;52.63;101822.28;5065740;28;20028;-60
2022/07/13 10:17:00;;;;;;;2.58;2.13;;;;;;;23.45;52.60;101831.75;5065917;28;20088;-59
2022/07/13 10:19:26;;;;;;;2.53;2.22;;;;;;;23.47;52.83;101834.28;5064558;28;20021;-60
2022/07/13 10:22:11;;;;;;;3.22;2.42;;;;;;;23.48;52.58;101837.84;5065623;28;20063;-60
2022/07/13 10:24:37;;;;;;;3.15;2.50;;;;;;;23.49;52.65;101836.81;5063981;28;20035;-60
2022/07/13 10:27:26;;;;;;;2.70;2.25;;;;;;;23.50;52.62;101846.66;5064173;28;20699;-60
2022/07/13 10:30:27;;;;;;;2.53;2.30;;;;;;;23.49;52.79;101831.38;5066010;28;20044;-60
2022/07/13 10:32:53;;;;;;;2.97;2.42;;;;;;;23.51;52.61;101843.78;5043076;28;20030;-60
2022/07/13 10:35:20;;;;;;;3.80;2.47;;;;;;;23.52;52.51;101847.31;5043397;28;20065;-60
2022/07/13 10:38:00;;;;;;;4.15;2.42;;;;;;;23.53;52.54;101838.16;5042921;28;20039;-60
2022/07/13 10:40:27;;;;;;;2.88;2.30;;;;;;;23.54;52.50;101842.59;5042797;28;20037;-60
2022/07/13 10:42:57;;;;;;;3.25;2.80;;;;;;;23.54;52.42;101837.16;5043016;28;20093;-60
2022/07/13 10:45:31;;;;;;;2.63;2.28;;;;;;;23.56;52.50;101845.94;5042817;28;20045;-60
2022/07/13 10:47:57;;;;;;;2.80;2.20;;;;;;;23.37;52.29;101812.78;5045333;28;20211;-60
2022/07/13 10:50:22;;;;;;;2.83;2.53;;;;;;;23.56;52.36;101835.94;5062932;28;20025;-60
2022/07/13 10:52:48;;;;;;;2.70;2.33;;;;;;;23.36;52.35;101810.25;5062442;28;20111;-60
2022/07/13 10:55:13;;;;;;;2.55;2.30;;;;;;;23.56;52.11;101849.50;5045115;28;20040;-59
2022/07/13 10:57:42;;;;;;;2.78;2.33;;;;;;;23.57;52.21;101853.91;5062364;28;20092;-59
2022/07/13 11:00:23;;;;;;;2.60;2.17;;;;;;;23.56;52.49;101848.66;5029651;28;20049;-59
2022/07/13 11:02:50;;;;;;;2.95;2.33;;;;;;;23.58;52.39;101854.78;5045764;28;20386;-59
2022/07/13 11:05:29;;;;;;;3.03;2.45;;;;;;;23.39;52.38;101823.47;5046441;28;20017;-59
2022/07/13 11:07:54;;;;;;;3.30;2.25;;;;;;;23.59;52.17;101859.19;5083535;28;20037;-59
2022/07/13 11:10:25;;;;;;;2.50;2.08;;;;;;;23.60;52.40;101852.72;5083633;28;20062;-59
2022/07/13 11:13:04;;;;;;;2.95;2.30;;;;;;;23.61;52.25;101862.56;5085001;28;20088;-59
2022/07/13 11:15:49;;;;;;;2.40;2.00;;;;;;;23.61;52.13;101859.84;5084833;28;20033;-59
2022/07/13 11:18:31;;;;;;;2.90;2.35;;;;;;;23.62;52.48;101866.97;5084965;28;20039;-59
2022/07/13 11:21:18;;;;;;;2.63;2.20;;;;;;;23.63;52.39;101868.66;5085433;28;20024;-59
2022/07/13 11:26:52;;;;;;;2.50;2.20;;;;;;;23.65;52.29;101866.63;5084718;28;20040;-59
2022/07/13 11:29:45;;;;;;;2.40;2.20;;;;;;;23.67;52.18;101865.44;5084753;28;20104;-59
2022/07/13 11:32:11;;;;;;;3.33;2.00;;;;;;;23.69;52.21;101876.13;5083599;28;20024;-59
2022/07/13 11:34:37;;;;;;;2.53;2.20;;;;;;;23.53;52.30;101843.59;5066868;28;20020;-59